Mc Connell Air Force Base
KIAB : now visible

Airfield :











YOU CAN JOIN US ON...

 
LOGIN :

Register | Disclaimer

   EN    FR    IT 

 









Legend :    VFR   Marginal VFR   IFR   Intensive IFR   Very Intensive IFR
Visi :
Ceiling :
>= 8 km
>= 3000ft
5 to 8 km
1000 to 3000 ft
1500m to 5 km
500 to 1000 ft
800 to 1500m
200 to 500 ft
< 800m
< 200 ft
Symbols :   Thunderstorms  Fog  Heavy snow  Heavy precipitations  Wind > 20 kt






- Airport Elevation : 1371 ft
- IATA code : IAB


KIAB - Mc Connell Air Force Base

CURRENT METAR :
  • 181156Z AUTO 33020G26KT 10SM CLR 01/M04 A3015 RMK AO2 PK WND 33038/20 SLP222 70012 T00071041 10073 20007 52057 $

EXPIRED METARs :
  • 181131Z AUTO 33021G38KT 10SM SCT018 02/M03 A3013 RMK AO2 PRESRR SLP215 $
  • 181056Z AUTO 33024G33KT 10SM OVC018 03/00 A3009 RMK AO2 PK WND 36034/04 SLP200 T00341004 $
  • 181026Z AUTO 34018G28KT 10SM BKN019 04/00 A3006 RMK AO2 CIG 019V027 SLP190 $
  • 180956Z AUTO 32019G27KT 10SM CLR 04/00 A3004 RMK AO2 PK WND 32029/40 PRESRR SLP183 T00400003 $

TAF TAF KIAB
Valid from the 18 at 11:00 until the 19 at 17:00 UTC


181100Z 1811/1917 34020G30KT 9999 OVC018 QNH3009INS
TEMPO 1811/1815 33025G35KT
BECMG 1815/1816 34015G25KT 9999 OVC030 650079 QNH3025INS
BECMG 1820/1821 32010KT 9999 SKC QNH3026INS TX06/1818Z TN01/1813Z



MET'MAP, your aeronautical weather chart ! - Copyright ORBIFLY December 2007 - Disclaimer

ORBIFLY MET'MAP TEAM :

Programming & Development : Alexandra Zaïnal
Concept & original design : Baudouin d'Aumeries
Assistance for programming : Marc-Olivier Méhu
Technical & hardware support : Manuel Goepfert

Contact : metmap@orbifly.com




SOURCES & CREDITS :

   NOAA       Earth
Advisory